Aérodrome :
LOGIN :

S'inscrire | Disclaimer

   EN    FR    IT 

 










Légende :    VFR   VFR Marginal   IFR   IFR Intensif   IFR Très Intensif
Visi : 
Plafond : 
>= 8 km
>= 3000ft
5 à 8 km
1000 à 3000 ft
1500m à 5 km
500 à 1000 ft
800 à 1500m
200 à 500 ft
< 800m
< 200 ft
Symboles :   Orages  Brouillard  Fortes neiges  Fortes précipitations  Vent > 20 kt
SIGMETs :   Divers  Orages  Givrage  Turbulence  Onde Orograph.  Cendres Volcan.






- Altitude de l'aérodrome : 287 ft


LFRL - Lanveoc Poulmic

DERNIER METAR :
  • 181100Z AUTO 23017G28KT 9999 FEW028 15/09 Q1007 TEMPO 4000 SHRA SCT015CB SCT020TCU

METARs EXPIRÉS :
  • 181030Z AUTO 22015KT 9999 FEW028 SCT084 15/09 Q1007 TEMPO 23016G30KT 4000 SHRA SCT015CB SCT020TCU
  • 181000Z AUTO 23015KT CAVOK 15/08 Q1007 TEMPO 23016G30KT 4000 SHRA SCT015CB SCT020TCU
  • 180930Z AUTO 22013KT 9999 SCT033 BKN040 BKN250 15/09 Q1007 TEMPO 23016G30KT 4000 SHRA SCT015CB SCT020TCU
  • 180900Z AUTO 23014KT 9999 FEW029 14/09 Q1007 TEMPO 23016G30KT 4000 SHRA SCT015CB SCT020TCU
  • 180830Z AUTO 23015KT 9999 SCT027 SCT034 BKN042 14/09 Q1007 TEMPO 23016G30KT 4000 SHRA SCT015CB SCT020TCU

TAF TAF LFRL
Valide du 18 à 06h jusqu'au 19 à 06h UTC


180500Z 1806/1906 23015G25KT 9999 SCT020 SCT035
TEMPO 1806/1818 23016G30KT 4000 SHRA SCT015CB SCT020TCU
TEMPO 1818/1906 2000 SHRA BKN008 BKN010CB
BECMG 1904/1906 26010KT



MET'MAP, la Météo Aéronautique d'un coup d'oeil ! - Copyright ORBIFLY Décembre 2007 - Disclaimer

ORBIFLY MET'MAP TEAM :

Programmation & Développement : Alexandra Zaïnal
Conception & Développement : Baudouin d'Aumeries
Co-Programmation & Développement : Marc-Olivier Méhu
Soutien technique & logistique : Manuel Goepfert

Contact : metmap@orbifly.com




SOURCES & CREDITS :

   NOAA